sensor_id;sensor_type;location;lat;lon;timestamp;P1;durP1;ratioP1;P2;durP2;ratioP2
24685;SDS011;12804;51.176;4.452;2022-08-24T00:00:03;2.78;;;2.35;;
24685;SDS011;12804;51.176;4.452;2022-08-24T00:02:31;2.95;;;2.10;;
24685;SDS011;12804;51.176;4.452;2022-08-24T00:04:57;3.95;;;2.28;;
24685;SDS011;12804;51.176;4.452;2022-08-24T00:07:23;2.05;;;1.90;;
24685;SDS011;12804;51.176;4.452;2022-08-24T00:09:49;4.05;;;2.30;;
24685;SDS011;12804;51.176;4.452;2022-08-24T00:12:15;3.50;;;2.08;;
24685;SDS011;12804;51.176;4.452;2022-08-24T00:14:41;3.35;;;1.80;;
24685;SDS011;12804;51.176;4.452;2022-08-24T00:17:08;2.40;;;2.00;;
24685;SDS011;12804;51.176;4.452;2022-08-24T00:19:34;2.65;;;2.10;;
24685;SDS011;12804;51.176;4.452;2022-08-24T00:22:00;2.60;;;2.20;;
24685;SDS011;12804;51.176;4.452;2022-08-24T00:24:26;2.45;;;2.25;;
24685;SDS011;12804;51.176;4.452;2022-08-24T00:26:52;2.45;;;2.00;;
24685;SDS011;12804;51.176;4.452;2022-08-24T00:29:18;2.67;;;2.10;;
24685;SDS011;12804;51.176;4.452;2022-08-24T00:31:46;2.90;;;1.80;;
24685;SDS011;12804;51.176;4.452;2022-08-24T00:34:12;3.28;;;2.00;;
24685;SDS011;12804;51.176;4.452;2022-08-24T00:36:39;2.90;;;1.95;;
24685;SDS011;12804;51.176;4.452;2022-08-24T00:39:06;2.28;;;1.60;;
24685;SDS011;12804;51.176;4.452;2022-08-24T00:41:33;3.53;;;2.10;;
24685;SDS011;12804;51.176;4.452;2022-08-24T00:44:00;2.45;;;1.77;;
24685;SDS011;12804;51.176;4.452;2022-08-24T00:49:03;2.10;;;1.90;;
24685;SDS011;12804;51.176;4.452;2022-08-24T00:51:35;2.55;;;1.70;;
24685;SDS011;12804;51.176;4.452;2022-08-24T00:54:06;1.90;;;1.70;;
24685;SDS011;12804;51.176;4.452;2022-08-24T00:56:56;3.03;;;1.85;;
24685;SDS011;12804;51.176;4.452;2022-08-24T00:59:27;2.55;;;2.00;;
24685;SDS011;12804;51.176;4.452;2022-08-24T01:01:56;1.52;;;1.42;;
24685;SDS011;12804;51.176;4.452;2022-08-24T01:04:26;2.72;;;1.90;;
24685;SDS011;12804;51.176;4.452;2022-08-24T01:06:56;2.17;;;1.95;;
24685;SDS011;12804;51.176;4.452;2022-08-24T01:09:22;2.42;;;1.80;;
24685;SDS011;12804;51.176;4.452;2022-08-24T01:11:48;3.13;;;2.13;;
24685;SDS011;12804;51.176;4.452;2022-08-24T01:14:15;2.33;;;1.88;;
24685;SDS011;12804;51.176;4.452;2022-08-24T01:16:43;2.58;;;1.90;;
24685;SDS011;12804;51.176;4.452;2022-08-24T01:19:34;2.13;;;1.92;;
24685;SDS011;12804;51.176;4.452;2022-08-24T01:24:41;2.50;;;2.30;;
24685;SDS011;12804;51.176;4.452;2022-08-24T01:27:08;3.17;;;2.28;;
24685;SDS011;12804;51.176;4.452;2022-08-24T01:29:36;2.65;;;2.13;;
24685;SDS011;12804;51.176;4.452;2022-08-24T01:32:03;2.88;;;2.47;;
24685;SDS011;12804;51.176;4.452;2022-08-24T01:34:29;2.40;;;2.20;;
24685;SDS011;12804;51.176;4.452;2022-08-24T01:36:55;3.50;;;2.72;;
24685;SDS011;12804;51.176;4.452;2022-08-24T01:39:33;3.65;;;2.72;;
24685;SDS011;12804;51.176;4.452;2022-08-24T01:42:02;2.80;;;2.60;;
24685;SDS011;12804;51.176;4.452;2022-08-24T01:44:29;4.15;;;2.88;;
24685;SDS011;12804;51.176;4.452;2022-08-24T01:46:59;2.92;;;2.47;;
24685;SDS011;12804;51.176;4.452;2022-08-24T01:49:27;3.13;;;2.83;;
24685;SDS011;12804;51.176;4.452;2022-08-24T01:54:24;4.88;;;2.65;;
24685;SDS011;12804;51.176;4.452;2022-08-24T01:56:51;3.78;;;2.75;;
24685;SDS011;12804;51.176;4.452;2022-08-24T01:59:17;3.17;;;2.88;;
24685;SDS011;12804;51.176;4.452;2022-08-24T02:01:49;3.80;;;2.80;;
24685;SDS011;12804;51.176;4.452;2022-08-24T02:04:33;2.78;;;2.40;;
24685;SDS011;12804;51.176;4.452;2022-08-24T02:06:59;4.78;;;2.90;;
24685;SDS011;12804;51.176;4.452;2022-08-24T02:09:26;2.72;;;2.38;;
24685;SDS011;12804;51.176;4.452;2022-08-24T02:11:52;2.70;;;2.50;;
24685;SDS011;12804;51.176;4.452;2022-08-24T02:14:20;3.10;;;2.80;;
24685;SDS011;12804;51.176;4.452;2022-08-24T02:16:46;5.25;;;3.10;;
24685;SDS011;12804;51.176;4.452;2022-08-24T02:19:12;2.63;;;2.22;;
24685;SDS011;12804;51.176;4.452;2022-08-24T02:21:38;2.55;;;2.38;;
24685;SDS011;12804;51.176;4.452;2022-08-24T02:24:05;2.67;;;2.47;;
24685;SDS011;12804;51.176;4.452;2022-08-24T02:26:31;2.60;;;2.35;;
24685;SDS011;12804;51.176;4.452;2022-08-24T02:28:57;2.88;;;2.67;;
24685;SDS011;12804;51.176;4.452;2022-08-24T02:31:23;6.63;;;2.95;;
24685;SDS011;12804;51.176;4.452;2022-08-24T02:33:49;3.00;;;2.60;;
24685;SDS011;12804;51.176;4.452;2022-08-24T02:36:15;3.10;;;2.80;;
24685;SDS011;12804;51.176;4.452;2022-08-24T02:38:41;2.97;;;2.67;;
24685;SDS011;12804;51.176;4.452;2022-08-24T02:41:13;2.78;;;2.58;;
24685;SDS011;12804;51.176;4.452;2022-08-24T02:43:40;2.55;;;2.35;;
24685;SDS011;12804;51.176;4.452;2022-08-24T02:46:06;4.70;;;3.08;;
24685;SDS011;12804;51.176;4.452;2022-08-24T02:48:32;2.80;;;2.60;;
24685;SDS011;12804;51.176;4.452;2022-08-24T02:50:58;3.10;;;2.55;;
24685;SDS011;12804;51.176;4.452;2022-08-24T02:53:25;3.55;;;2.60;;
24685;SDS011;12804;51.176;4.452;2022-08-24T02:55:51;3.05;;;2.45;;
24685;SDS011;12804;51.176;4.452;2022-08-24T02:58:17;2.80;;;2.60;;
24685;SDS011;12804;51.176;4.452;2022-08-24T03:00:45;3.13;;;2.80;;
24685;SDS011;12804;51.176;4.452;2022-08-24T03:03:15;3.15;;;2.85;;
24685;SDS011;12804;51.176;4.452;2022-08-24T03:05:41;4.22;;;3.40;;
24685;SDS011;12804;51.176;4.452;2022-08-24T03:08:07;4.10;;;3.28;;
24685;SDS011;12804;51.176;4.452;2022-08-24T03:10:33;4.00;;;3.60;;
24685;SDS011;12804;51.176;4.452;2022-08-24T03:13:00;3.58;;;3.22;;
24685;SDS011;12804;51.176;4.452;2022-08-24T03:15:27;4.60;;;3.40;;
24685;SDS011;12804;51.176;4.452;2022-08-24T03:17:54;3.13;;;2.80;;
24685;SDS011;12804;51.176;4.452;2022-08-24T03:20:21;3.50;;;3.20;;
24685;SDS011;12804;51.176;4.452;2022-08-24T03:22:48;3.70;;;3.35;;
24685;SDS011;12804;51.176;4.452;2022-08-24T03:25:15;4.55;;;3.53;;
24685;SDS011;12804;51.176;4.452;2022-08-24T03:27:42;5.25;;;3.30;;
24685;SDS011;12804;51.176;4.452;2022-08-24T03:30:09;3.90;;;3.60;;
24685;SDS011;12804;51.176;4.452;2022-08-24T03:32:40;4.97;;;3.97;;
24685;SDS011;12804;51.176;4.452;2022-08-24T03:35:06;4.15;;;3.45;;
24685;SDS011;12804;51.176;4.452;2022-08-24T03:37:33;3.97;;;3.58;;
24685;SDS011;12804;51.176;4.452;2022-08-24T03:39:59;4.10;;;3.60;;
24685;SDS011;12804;51.176;4.452;2022-08-24T03:42:25;3.90;;;3.50;;
24685;SDS011;12804;51.176;4.452;2022-08-24T03:44:51;5.90;;;3.80;;
24685;SDS011;12804;51.176;4.452;2022-08-24T03:47:17;4.72;;;3.70;;
24685;SDS011;12804;51.176;4.452;2022-08-24T03:49:45;4.43;;;3.72;;
24685;SDS011;12804;51.176;4.452;2022-08-24T03:52:11;4.05;;;3.50;;
24685;SDS011;12804;51.176;4.452;2022-08-24T03:54:36;4.20;;;3.80;;
24685;SDS011;12804;51.176;4.452;2022-08-24T03:57:02;4.60;;;3.78;;
24685;SDS011;12804;51.176;4.452;2022-08-24T03:59:28;4.88;;;4.38;;
24685;SDS011;12804;51.176;4.452;2022-08-24T04:01:56;4.45;;;4.05;;
24685;SDS011;12804;51.176;4.452;2022-08-24T04:04:24;4.78;;;4.28;;
24685;SDS011;12804;51.176;4.452;2022-08-24T04:06:50;4.60;;;3.80;;
24685;SDS011;12804;51.176;4.452;2022-08-24T04:09:16;4.25;;;3.85;;
24685;SDS011;12804;51.176;4.452;2022-08-24T04:11:45;5.20;;;4.05;;
24685;SDS011;12804;51.176;4.452;2022-08-24T04:14:11;6.13;;;4.00;;
24685;SDS011;12804;51.176;4.452;2022-08-24T04:16:40;5.05;;;4.10;;
24685;SDS011;12804;51.176;4.452;2022-08-24T04:19:14;4.35;;;3.42;;
24685;SDS011;12804;51.176;4.452;2022-08-24T04:21:40;6.88;;;3.83;;
24685;SDS011;12804;51.176;4.452;2022-08-24T04:24:10;3.65;;;3.35;;
24685;SDS011;12804;51.176;4.452;2022-08-24T04:26:36;4.80;;;3.63;;
24685;SDS011;12804;51.176;4.452;2022-08-24T04:29:04;4.95;;;4.22;;
24685;SDS011;12804;51.176;4.452;2022-08-24T04:31:30;7.28;;;4.25;;
24685;SDS011;12804;51.176;4.452;2022-08-24T04:33:59;3.90;;;3.50;;
24685;SDS011;12804;51.176;4.452;2022-08-24T04:36:24;4.57;;;3.45;;
24685;SDS011;12804;51.176;4.452;2022-08-24T04:38:50;4.88;;;3.55;;
24685;SDS011;12804;51.176;4.452;2022-08-24T04:41:39;4.55;;;3.47;;
24685;SDS011;12804;51.176;4.452;2022-08-24T04:44:08;4.70;;;4.30;;
24685;SDS011;12804;51.176;4.452;2022-08-24T04:46:34;4.30;;;3.90;;
24685;SDS011;12804;51.176;4.452;2022-08-24T04:48:59;6.80;;;4.57;;
24685;SDS011;12804;51.176;4.452;2022-08-24T04:51:26;5.30;;;4.80;;
24685;SDS011;12804;51.176;4.452;2022-08-24T04:53:51;6.72;;;4.53;;
24685;SDS011;12804;51.176;4.452;2022-08-24T04:56:19;6.13;;;4.00;;
24685;SDS011;12804;51.176;4.452;2022-08-24T04:58:51;4.72;;;4.32;;
24685;SDS011;12804;51.176;4.452;2022-08-24T05:01:19;4.88;;;4.18;;
24685;SDS011;12804;51.176;4.452;2022-08-24T05:03:48;4.70;;;4.25;;
24685;SDS011;12804;51.176;4.452;2022-08-24T05:06:17;5.38;;;4.70;;
24685;SDS011;12804;51.176;4.452;2022-08-24T05:08:44;5.57;;;4.72;;
24685;SDS011;12804;51.176;4.452;2022-08-24T05:11:12;6.93;;;4.45;;
24685;SDS011;12804;51.176;4.452;2022-08-24T05:13:39;6.18;;;4.22;;
24685;SDS011;12804;51.176;4.452;2022-08-24T05:16:07;8.93;;;5.85;;
24685;SDS011;12804;51.176;4.452;2022-08-24T05:18:40;9.55;;;6.22;;
24685;SDS011;12804;51.176;4.452;2022-08-24T05:21:07;7.45;;;5.28;;
24685;SDS011;12804;51.176;4.452;2022-08-24T05:23:35;6.22;;;4.70;;
24685;SDS011;12804;51.176;4.452;2022-08-24T05:26:04;8.23;;;4.28;;
24685;SDS011;12804;51.176;4.452;2022-08-24T05:28:30;5.60;;;4.22;;
24685;SDS011;12804;51.176;4.452;2022-08-24T05:30:56;4.63;;;4.22;;
24685;SDS011;12804;51.176;4.452;2022-08-24T05:33:41;6.82;;;3.30;;
24685;SDS011;12804;51.176;4.452;2022-08-24T05:36:13;4.80;;;4.10;;
24685;SDS011;12804;51.176;4.452;2022-08-24T05:38:43;7.25;;;4.32;;
24685;SDS011;12804;51.176;4.452;2022-08-24T05:41:09;4.88;;;4.15;;
24685;SDS011;12804;51.176;4.452;2022-08-24T05:43:37;6.10;;;4.32;;
24685;SDS011;12804;51.176;4.452;2022-08-24T05:46:03;6.55;;;4.93;;
24685;SDS011;12804;51.176;4.452;2022-08-24T05:48:30;5.43;;;4.03;;
24685;SDS011;12804;51.176;4.452;2022-08-24T05:50:58;4.30;;;3.90;;
24685;SDS011;12804;51.176;4.452;2022-08-24T05:53:28;4.60;;;4.20;;
24685;SDS011;12804;51.176;4.452;2022-08-24T05:55:55;6.00;;;4.40;;
24685;SDS011;12804;51.176;4.452;2022-08-24T05:58:21;7.13;;;4.53;;
24685;SDS011;12804;51.176;4.452;2022-08-24T06:00:47;4.75;;;4.25;;
24685;SDS011;12804;51.176;4.452;2022-08-24T06:03:14;11.25;;;5.28;;
24685;SDS011;12804;51.176;4.452;2022-08-24T06:05:47;5.80;;;4.68;;
24685;SDS011;12804;51.176;4.452;2022-08-24T06:08:14;6.40;;;5.72;;
24685;SDS011;12804;51.176;4.452;2022-08-24T06:10:44;7.20;;;6.32;;
24685;SDS011;12804;51.176;4.452;2022-08-24T06:13:13;8.02;;;6.57;;
24685;SDS011;12804;51.176;4.452;2022-08-24T06:15:40;10.55;;;7.38;;
24685;SDS011;12804;51.176;4.452;2022-08-24T06:18:09;9.40;;;7.10;;
24685;SDS011;12804;51.176;4.452;2022-08-24T06:20:39;12.02;;;9.27;;
24685;SDS011;12804;51.176;4.452;2022-08-24T06:23:08;8.55;;;7.25;;
24685;SDS011;12804;51.176;4.452;2022-08-24T06:25:38;13.13;;;9.88;;
24685;SDS011;12804;51.176;4.452;2022-08-24T06:28:24;12.68;;;11.00;;
24685;SDS011;12804;51.176;4.452;2022-08-24T06:30:59;15.27;;;13.43;;
24685;SDS011;12804;51.176;4.452;2022-08-24T06:33:27;17.35;;;12.75;;
24685;SDS011;12804;51.176;4.452;2022-08-24T06:35:56;19.55;;;15.75;;
24685;SDS011;12804;51.176;4.452;2022-08-24T06:38:22;16.88;;;13.98;;
24685;SDS011;12804;51.176;4.452;2022-08-24T06:40:49;18.05;;;14.90;;
24685;SDS011;12804;51.176;4.452;2022-08-24T06:43:17;17.65;;;13.85;;
24685;SDS011;12804;51.176;4.452;2022-08-24T06:45:51;18.35;;;14.38;;
24685;SDS011;12804;51.176;4.452;2022-08-24T06:48:24;19.85;;;16.00;;
24685;SDS011;12804;51.176;4.452;2022-08-24T06:50:51;17.48;;;12.73;;
24685;SDS011;12804;51.176;4.452;2022-08-24T06:53:17;13.02;;;10.70;;
24685;SDS011;12804;51.176;4.452;2022-08-24T06:58:14;12.70;;;11.15;;
24685;SDS011;12804;51.176;4.452;2022-08-24T07:00:40;19.27;;;15.98;;
24685;SDS011;12804;51.176;4.452;2022-08-24T07:03:07;18.67;;;15.70;;
24685;SDS011;12804;51.176;4.452;2022-08-24T07:05:34;16.15;;;14.48;;
24685;SDS011;12804;51.176;4.452;2022-08-24T07:08:20;14.25;;;11.20;;
24685;SDS011;12804;51.176;4.452;2022-08-24T07:10:46;15.68;;;13.55;;
24685;SDS011;12804;51.176;4.452;2022-08-24T07:13:13;11.30;;;9.95;;
24685;SDS011;12804;51.176;4.452;2022-08-24T07:15:40;15.57;;;12.23;;
24685;SDS011;12804;51.176;4.452;2022-08-24T07:18:14;14.38;;;12.88;;
24685;SDS011;12804;51.176;4.452;2022-08-24T07:20:44;13.68;;;11.68;;
24685;SDS011;12804;51.176;4.452;2022-08-24T07:23:17;10.38;;;9.38;;
24685;SDS011;12804;51.176;4.452;2022-08-24T07:25:44;12.88;;;10.48;;
24685;SDS011;12804;51.176;4.452;2022-08-24T07:28:12;13.35;;;10.80;;
24685;SDS011;12804;51.176;4.452;2022-08-24T07:30:39;18.40;;;14.20;;
24685;SDS011;12804;51.176;4.452;2022-08-24T07:33:06;11.90;;;10.70;;
24685;SDS011;12804;51.176;4.452;2022-08-24T07:35:34;15.95;;;13.13;;
24685;SDS011;12804;51.176;4.452;2022-08-24T07:38:03;11.30;;;9.38;;
24685;SDS011;12804;51.176;4.452;2022-08-24T07:40:31;15.20;;;11.00;;
24685;SDS011;12804;51.176;4.452;2022-08-24T07:42:57;10.20;;;9.30;;
24685;SDS011;12804;51.176;4.452;2022-08-24T07:45:24;14.63;;;11.13;;
24685;SDS011;12804;51.176;4.452;2022-08-24T07:47:51;14.48;;;12.43;;
24685;SDS011;12804;51.176;4.452;2022-08-24T07:50:39;15.23;;;13.35;;
24685;SDS011;12804;51.176;4.452;2022-08-24T07:53:05;12.65;;;11.23;;
24685;SDS011;12804;51.176;4.452;2022-08-24T07:55:31;16.38;;;13.80;;
24685;SDS011;12804;51.176;4.452;2022-08-24T07:57:57;15.02;;;13.43;;
24685;SDS011;12804;51.176;4.452;2022-08-24T08:00:24;18.52;;;14.75;;
24685;SDS011;12804;51.176;4.452;2022-08-24T08:02:55;15.13;;;12.80;;
24685;SDS011;12804;51.176;4.452;2022-08-24T08:05:22;10.68;;;9.35;;
24685;SDS011;12804;51.176;4.452;2022-08-24T08:07:50;10.63;;;9.52;;
24685;SDS011;12804;51.176;4.452;2022-08-24T08:10:17;8.18;;;6.70;;
24685;SDS011;12804;51.176;4.452;2022-08-24T08:12:44;7.25;;;6.60;;
24685;SDS011;12804;51.176;4.452;2022-08-24T08:15:10;9.20;;;6.72;;
24685;SDS011;12804;51.176;4.452;2022-08-24T08:17:44;7.43;;;6.35;;
24685;SDS011;12804;51.176;4.452;2022-08-24T08:20:11;8.15;;;6.13;;
24685;SDS011;12804;51.176;4.452;2022-08-24T08:22:37;11.77;;;9.13;;
24685;SDS011;12804;51.176;4.452;2022-08-24T08:25:48;6.90;;;6.30;;
24685;SDS011;12804;51.176;4.452;2022-08-24T08:28:23;6.45;;;5.65;;
24685;SDS011;12804;51.176;4.452;2022-08-24T08:30:50;5.43;;;4.93;;
24685;SDS011;12804;51.176;4.452;2022-08-24T08:33:17;7.45;;;5.40;;
24685;SDS011;12804;51.176;4.452;2022-08-24T08:35:43;8.40;;;7.53;;
24685;SDS011;12804;51.176;4.452;2022-08-24T08:38:09;5.63;;;5.05;;
24685;SDS011;12804;51.176;4.452;2022-08-24T08:40:46;7.80;;;5.55;;
24685;SDS011;12804;51.176;4.452;2022-08-24T08:43:44;6.50;;;5.63;;
24685;SDS011;12804;51.176;4.452;2022-08-24T08:55:19;3.75;;;2.75;;
24685;SDS011;12804;51.176;4.452;2022-08-24T09:00:13;3.85;;;2.10;;
24685;SDS011;12804;51.176;4.452;2022-08-24T09:11:19;6.32;;;3.75;;
24685;SDS011;12804;51.176;4.452;2022-08-24T09:14:44;5.47;;;4.10;;
24685;SDS011;12804;51.176;4.452;2022-08-24T09:22:44;8.20;;;4.10;;
24685;SDS011;12804;51.176;4.452;2022-08-24T09:28:02;3.78;;;2.08;;
24685;SDS011;12804;51.176;4.452;2022-08-24T09:30:33;3.00;;;1.90;;
24685;SDS011;12804;51.176;4.452;2022-08-24T09:33:22;2.70;;;1.88;;
24685;SDS011;12804;51.176;4.452;2022-08-24T09:56:32;3.25;;;1.95;;
24685;SDS011;12804;51.176;4.452;2022-08-24T09:59:20;3.23;;;2.93;;
24685;SDS011;12804;51.176;4.452;2022-08-24T10:07:59;2.67;;;2.47;;
24685;SDS011;12804;51.176;4.452;2022-08-24T10:12:59;4.80;;;4.38;;
24685;SDS011;12804;51.176;4.452;2022-08-24T10:15:37;5.32;;;4.47;;
24685;SDS011;12804;51.176;4.452;2022-08-24T10:26:39;3.78;;;3.03;;
24685;SDS011;12804;51.176;4.452;2022-08-24T10:38:30;7.53;;;5.03;;
24685;SDS011;12804;51.176;4.452;2022-08-24T10:49:50;8.23;;;4.65;;
24685;SDS011;12804;51.176;4.452;2022-08-24T10:55:40;4.47;;;2.95;;
24685;SDS011;12804;51.176;4.452;2022-08-24T11:00:44;7.47;;;3.10;;
24685;SDS011;12804;51.176;4.452;2022-08-24T11:03:12;3.22;;;2.33;;
24685;SDS011;12804;51.176;4.452;2022-08-24T11:05:44;6.57;;;3.28;;
24685;SDS011;12804;51.176;4.452;2022-08-24T11:08:17;4.82;;;2.28;;
24685;SDS011;12804;51.176;4.452;2022-08-24T11:13:52;4.63;;;2.63;;
24685;SDS011;12804;51.176;4.452;2022-08-24T11:16:34;3.72;;;2.20;;
24685;SDS011;12804;51.176;4.452;2022-08-24T11:19:50;5.95;;;2.50;;
24685;SDS011;12804;51.176;4.452;2022-08-24T11:21:51;3.58;;;2.00;;
24685;SDS011;12804;51.176;4.452;2022-08-24T11:37:52;2.28;;;1.42;;
24685;SDS011;12804;51.176;4.452;2022-08-24T11:40:23;8.10;;;1.67;;
24685;SDS011;12804;51.176;4.452;2022-08-24T11:43:00;4.70;;;1.70;;
24685;SDS011;12804;51.176;4.452;2022-08-24T11:53:32;4.03;;;0.98;;
24685;SDS011;12804;51.176;4.452;2022-08-24T11:59:01;2.70;;;0.80;;
24685;SDS011;12804;51.176;4.452;2022-08-24T12:05:21;2.47;;;1.02;;
24685;SDS011;12804;51.176;4.452;2022-08-24T12:18:38;2.15;;;0.90;;
24685;SDS011;12804;51.176;4.452;2022-08-24T12:21:12;1.35;;;1.00;;
24685;SDS011;12804;51.176;4.452;2022-08-24T12:23:44;1.02;;;0.63;;
24685;SDS011;12804;51.176;4.452;2022-08-24T12:26:32;2.70;;;0.80;;
24685;SDS011;12804;51.176;4.452;2022-08-24T12:34:15;1.23;;;0.70;;
24685;SDS011;12804;51.176;4.452;2022-08-24T12:37:13;2.08;;;0.70;;
24685;SDS011;12804;51.176;4.452;2022-08-24T12:39:39;2.08;;;0.77;;
24685;SDS011;12804;51.176;4.452;2022-08-24T12:42:57;3.15;;;0.80;;
24685;SDS011;12804;51.176;4.452;2022-08-24T12:45:00;3.08;;;0.80;;
24685;SDS011;12804;51.176;4.452;2022-08-24T12:47:34;1.35;;;0.65;;
24685;SDS011;12804;51.176;4.452;2022-08-24T12:50:08;1.50;;;0.80;;
24685;SDS011;12804;51.176;4.452;2022-08-24T12:58:08;1.30;;;0.77;;
24685;SDS011;12804;51.176;4.452;2022-08-24T13:00:55;1.90;;;0.82;;
24685;SDS011;12804;51.176;4.452;2022-08-24T13:05:57;1.55;;;0.65;;
24685;SDS011;12804;51.176;4.452;2022-08-24T13:08:38;5.55;;;0.95;;
24685;SDS011;12804;51.176;4.452;2022-08-24T13:11:10;1.67;;;0.90;;
24685;SDS011;12804;51.176;4.452;2022-08-24T13:13:47;1.02;;;0.55;;
24685;SDS011;12804;51.176;4.452;2022-08-24T13:16:48;3.67;;;0.80;;
24685;SDS011;12804;51.176;4.452;2022-08-24T13:19:36;2.38;;;0.90;;
24685;SDS011;12804;51.176;4.452;2022-08-24T13:29:42;1.33;;;0.90;;
24685;SDS011;12804;51.176;4.452;2022-08-24T13:32:27;1.73;;;0.80;;
24685;SDS011;12804;51.176;4.452;2022-08-24T13:34:56;1.52;;;0.95;;
24685;SDS011;12804;51.176;4.452;2022-08-24T13:37:27;2.17;;;0.90;;
24685;SDS011;12804;51.176;4.452;2022-08-24T13:45:46;2.13;;;0.70;;
24685;SDS011;12804;51.176;4.452;2022-08-24T13:48:24;4.00;;;1.00;;
24685;SDS011;12804;51.176;4.452;2022-08-24T14:02:21;3.83;;;1.20;;
24685;SDS011;12804;51.176;4.452;2022-08-24T14:08:03;3.33;;;1.25;;
24685;SDS011;12804;51.176;4.452;2022-08-24T14:13:55;3.30;;;1.17;;
24685;SDS011;12804;51.176;4.452;2022-08-24T14:16:38;3.15;;;1.13;;
24685;SDS011;12804;51.176;4.452;2022-08-24T14:25:27;1.10;;;1.00;;
24685;SDS011;12804;51.176;4.452;2022-08-24T14:41:34;1.42;;;0.80;;
24685;SDS011;12804;51.176;4.452;2022-08-24T14:44:21;2.60;;;1.20;;
24685;SDS011;12804;51.176;4.452;2022-08-24T14:47:13;2.67;;;1.13;;
24685;SDS011;12804;51.176;4.452;2022-08-24T14:58:06;1.52;;;1.00;;
24685;SDS011;12804;51.176;4.452;2022-08-24T15:03:49;2.13;;;1.10;;
24685;SDS011;12804;51.176;4.452;2022-08-24T15:09:24;2.08;;;1.10;;
24685;SDS011;12804;51.176;4.452;2022-08-24T15:12:17;2.33;;;1.10;;
24685;SDS011;12804;51.176;4.452;2022-08-24T15:23:06;2.42;;;1.05;;
24685;SDS011;12804;51.176;4.452;2022-08-24T15:25:42;2.85;;;0.98;;
24685;SDS011;12804;51.176;4.452;2022-08-24T15:28:26;2.30;;;1.00;;
24685;SDS011;12804;51.176;4.452;2022-08-24T15:30:59;3.53;;;1.20;;
24685;SDS011;12804;51.176;4.452;2022-08-24T15:33:26;4.63;;;1.00;;
24685;SDS011;12804;51.176;4.452;2022-08-24T15:38:54;4.53;;;2.08;;
24685;SDS011;12804;51.176;4.452;2022-08-24T15:41:22;4.65;;;2.10;;
24685;SDS011;12804;51.176;4.452;2022-08-24T15:46:25;1.58;;;1.30;;
24685;SDS011;12804;51.176;4.452;2022-08-24T15:51:46;2.70;;;1.25;;
24685;SDS011;12804;51.176;4.452;2022-08-24T15:56:49;3.78;;;2.35;;
24685;SDS011;12804;51.176;4.452;2022-08-24T16:01:54;4.32;;;1.52;;
24685;SDS011;12804;51.176;4.452;2022-08-24T16:10:48;5.23;;;3.07;;
24685;SDS011;12804;51.176;4.452;2022-08-24T16:13:30;4.05;;;1.60;;
24685;SDS011;12804;51.176;4.452;2022-08-24T16:16:04;4.82;;;3.90;;
24685;SDS011;12804;51.176;4.452;2022-08-24T16:18:44;7.20;;;5.40;;
24685;SDS011;12804;51.176;4.452;2022-08-24T16:23:58;6.20;;;1.40;;
24685;SDS011;12804;51.176;4.452;2022-08-24T16:32:15;4.45;;;1.33;;
24685;SDS011;12804;51.176;4.452;2022-08-24T16:34:56;5.63;;;1.95;;
24685;SDS011;12804;51.176;4.452;2022-08-24T16:37:40;3.58;;;2.00;;
24685;SDS011;12804;51.176;4.452;2022-08-24T16:40:07;3.17;;;1.50;;
24685;SDS011;12804;51.176;4.452;2022-08-24T16:42:33;3.22;;;1.40;;
24685;SDS011;12804;51.176;4.452;2022-08-24T16:45:00;2.58;;;1.65;;
24685;SDS011;12804;51.176;4.452;2022-08-24T16:47:29;3.10;;;1.60;;
24685;SDS011;12804;51.176;4.452;2022-08-24T16:49:55;3.92;;;2.60;;
24685;SDS011;12804;51.176;4.452;2022-08-24T16:52:21;2.25;;;1.35;;
24685;SDS011;12804;51.176;4.452;2022-08-24T16:54:47;3.10;;;1.42;;
24685;SDS011;12804;51.176;4.452;2022-08-24T16:57:14;1.88;;;1.45;;
24685;SDS011;12804;51.176;4.452;2022-08-24T16:59:44;2.28;;;1.40;;
24685;SDS011;12804;51.176;4.452;2022-08-24T17:02:13;2.28;;;1.45;;
24685;SDS011;12804;51.176;4.452;2022-08-24T17:04:40;3.83;;;1.38;;
24685;SDS011;12804;51.176;4.452;2022-08-24T17:07:08;1.60;;;1.35;;
24685;SDS011;12804;51.176;4.452;2022-08-24T17:09:36;3.22;;;1.40;;
24685;SDS011;12804;51.176;4.452;2022-08-24T17:12:05;1.73;;;1.48;;
24685;SDS011;12804;51.176;4.452;2022-08-24T17:14:32;1.88;;;1.50;;
24685;SDS011;12804;51.176;4.452;2022-08-24T17:16:59;2.80;;;1.50;;
24685;SDS011;12804;51.176;4.452;2022-08-24T17:19:25;3.63;;;1.80;;
24685;SDS011;12804;51.176;4.452;2022-08-24T17:21:53;4.07;;;1.45;;
24685;SDS011;12804;51.176;4.452;2022-08-24T17:24:19;3.70;;;1.80;;
24685;SDS011;12804;51.176;4.452;2022-08-24T17:26:47;7.32;;;1.60;;
24685;SDS011;12804;51.176;4.452;2022-08-24T17:29:15;3.10;;;1.50;;
24685;SDS011;12804;51.176;4.452;2022-08-24T17:31:43;2.83;;;1.80;;
24685;SDS011;12804;51.176;4.452;2022-08-24T17:34:10;5.25;;;1.55;;
24685;SDS011;12804;51.176;4.452;2022-08-24T17:36:36;1.65;;;1.40;;
24685;SDS011;12804;51.176;4.452;2022-08-24T17:39:03;2.95;;;1.40;;
24685;SDS011;12804;51.176;4.452;2022-08-24T17:41:31;5.47;;;1.42;;
24685;SDS011;12804;51.176;4.452;2022-08-24T17:43:58;1.85;;;1.27;;
24685;SDS011;12804;51.176;4.452;2022-08-24T17:46:25;2.90;;;1.42;;
24685;SDS011;12804;51.176;4.452;2022-08-24T17:48:52;2.55;;;1.80;;
24685;SDS011;12804;51.176;4.452;2022-08-24T17:51:19;3.15;;;1.30;;
24685;SDS011;12804;51.176;4.452;2022-08-24T17:53:44;3.97;;;1.60;;
24685;SDS011;12804;51.176;4.452;2022-08-24T17:56:10;2.90;;;1.50;;
24685;SDS011;12804;51.176;4.452;2022-08-24T17:58:38;4.35;;;1.40;;
24685;SDS011;12804;51.176;4.452;2022-08-24T18:01:24;5.03;;;1.58;;
24685;SDS011;12804;51.176;4.452;2022-08-24T18:03:50;2.58;;;1.60;;
24685;SDS011;12804;51.176;4.452;2022-08-24T18:06:17;6.32;;;1.60;;
24685;SDS011;12804;51.176;4.452;2022-08-24T18:08:45;3.42;;;1.77;;
24685;SDS011;12804;51.176;4.452;2022-08-24T18:11:12;3.45;;;1.42;;
24685;SDS011;12804;51.176;4.452;2022-08-24T18:13:39;6.25;;;1.83;;
24685;SDS011;12804;51.176;4.452;2022-08-24T18:16:05;2.05;;;1.70;;
24685;SDS011;12804;51.176;4.452;2022-08-24T18:18:37;1.80;;;1.42;;
24685;SDS011;12804;51.176;4.452;2022-08-24T18:21:03;2.85;;;1.77;;
24685;SDS011;12804;51.176;4.452;2022-08-24T18:23:28;6.55;;;1.90;;
24685;SDS011;12804;51.176;4.452;2022-08-24T18:25:54;2.90;;;1.50;;
24685;SDS011;12804;51.176;4.452;2022-08-24T18:28:20;2.05;;;1.60;;
24685;SDS011;12804;51.176;4.452;2022-08-24T18:30:47;4.13;;;1.90;;
24685;SDS011;12804;51.176;4.452;2022-08-24T18:33:13;4.15;;;1.90;;
24685;SDS011;12804;51.176;4.452;2022-08-24T18:35:38;4.28;;;1.77;;
24685;SDS011;12804;51.176;4.452;2022-08-24T18:38:04;3.03;;;1.77;;
24685;SDS011;12804;51.176;4.452;2022-08-24T18:40:30;4.30;;;1.63;;
24685;SDS011;12804;51.176;4.452;2022-08-24T18:42:56;2.70;;;1.83;;
24685;SDS011;12804;51.176;4.452;2022-08-24T18:45:23;2.35;;;1.63;;
24685;SDS011;12804;51.176;4.452;2022-08-24T18:47:53;3.50;;;1.33;;
24685;SDS011;12804;51.176;4.452;2022-08-24T18:50:19;2.38;;;1.90;;
24685;SDS011;12804;51.176;4.452;2022-08-24T18:52:45;6.03;;;1.90;;
24685;SDS011;12804;51.176;4.452;2022-08-24T18:55:11;4.28;;;1.70;;
24685;SDS011;12804;51.176;4.452;2022-08-24T18:57:37;5.63;;;1.70;;
24685;SDS011;12804;51.176;4.452;2022-08-24T19:00:04;2.97;;;1.63;;
24685;SDS011;12804;51.176;4.452;2022-08-24T19:02:30;6.53;;;1.90;;
24685;SDS011;12804;51.176;4.452;2022-08-24T19:07:33;3.03;;;1.77;;
24685;SDS011;12804;51.176;4.452;2022-08-24T19:10:03;5.35;;;2.00;;
24685;SDS011;12804;51.176;4.452;2022-08-24T19:12:30;2.88;;;1.85;;
24685;SDS011;12804;51.176;4.452;2022-08-24T19:14:58;3.72;;;1.70;;
24685;SDS011;12804;51.176;4.452;2022-08-24T19:17:25;3.53;;;1.77;;
24685;SDS011;12804;51.176;4.452;2022-08-24T19:19:51;3.85;;;1.98;;
24685;SDS011;12804;51.176;4.452;2022-08-24T19:22:17;3.00;;;1.95;;